createdAt,value
2022-12-18T00:00:44.518Z,-3.90
2022-12-18T00:03:36.475Z,-3.94
2022-12-18T00:06:08.436Z,-3.93
2022-12-18T00:08:40.111Z,-3.91
2022-12-18T00:11:13.309Z,-3.93
2022-12-18T00:13:45.605Z,-3.92
2022-12-18T00:16:20.982Z,-3.88
2022-12-18T00:18:54.492Z,-3.90
2022-12-18T00:21:26.425Z,-3.89
2022-12-18T00:23:58.614Z,-3.84
2022-12-18T00:26:32.461Z,-3.81
2022-12-18T00:29:06.580Z,-3.76
2022-12-18T00:31:39.167Z,-3.73
2022-12-18T00:34:13.792Z,-3.72
2022-12-18T00:36:46.047Z,-3.73
2022-12-18T00:39:17.667Z,-3.72
2022-12-18T00:42:06.838Z,-3.70
2022-12-18T00:44:38.484Z,-3.65
2022-12-18T00:47:10.160Z,-3.65
2022-12-18T00:49:41.895Z,-3.64
2022-12-18T00:52:14.465Z,-3.65
2022-12-18T00:54:46.273Z,-3.75
2022-12-18T00:57:17.851Z,-3.77
2022-12-18T00:59:49.511Z,-3.67
2022-12-18T01:02:21.307Z,-3.61
2022-12-18T01:04:53.085Z,-3.61
2022-12-18T01:07:24.689Z,-3.56
2022-12-18T01:09:56.332Z,-3.54
2022-12-18T01:12:28.063Z,-3.63
2022-12-18T01:14:59.942Z,-3.66
2022-12-18T01:17:33.088Z,-3.66
2022-12-18T01:20:12.200Z,-3.61
2022-12-18T01:22:44.053Z,-3.60
2022-12-18T01:25:15.773Z,-3.58
2022-12-18T01:27:47.489Z,-3.56
2022-12-18T01:30:26.166Z,-3.52
2022-12-18T01:32:58.637Z,-3.48
2022-12-18T01:35:30.274Z,-3.47
2022-12-18T01:38:02.208Z,-3.50
2022-12-18T01:40:33.892Z,-3.52
2022-12-18T01:43:05.464Z,-3.53
2022-12-18T01:45:37.146Z,-3.58
2022-12-18T01:48:10.816Z,-3.60
2022-12-18T01:50:44.628Z,-3.60
2022-12-18T01:53:19.055Z,-3.61
2022-12-18T01:55:53.893Z,-3.57
2022-12-18T01:58:32.327Z,-3.54
2022-12-18T02:01:04.348Z,-3.51
2022-12-18T02:03:36.774Z,-3.53
2022-12-18T02:06:18.088Z,-3.50
2022-12-18T02:08:59.336Z,-3.46
2022-12-18T02:11:34.994Z,-3.36
2022-12-18T02:14:18.908Z,-3.32
2022-12-18T02:17:00.904Z,-3.29
2022-12-18T02:19:46.457Z,-3.25
2022-12-18T02:22:31.873Z,-3.25
2022-12-18T02:25:15.345Z,-3.24
2022-12-18T02:27:49.323Z,-3.27
2022-12-18T02:30:26.102Z,-3.25
2022-12-18T02:32:59.805Z,-3.21
2022-12-18T02:35:34.872Z,-3.22
2022-12-18T02:38:07.259Z,-3.27
2022-12-18T02:40:40.645Z,-3.29
2022-12-18T02:43:14.367Z,-3.28
2022-12-18T02:45:52.729Z,-3.27
2022-12-18T02:48:28.142Z,-3.22
2022-12-18T02:51:05.744Z,-3.24
2022-12-18T02:53:45.520Z,-3.29
2022-12-18T02:56:24.669Z,-3.28
2022-12-18T02:59:02.408Z,-3.33
2022-12-18T03:01:40.799Z,-3.34
2022-12-18T03:04:16.935Z,-3.30
2022-12-18T03:06:51.410Z,-3.35
2022-12-18T03:09:27.020Z,-3.35
2022-12-18T03:12:20.198Z,-3.36
2022-12-18T03:14:54.532Z,-3.36
2022-12-18T03:17:28.886Z,-3.36
2022-12-18T03:20:04.524Z,-3.35
2022-12-18T03:22:45.059Z,-3.33
2022-12-18T03:25:18.946Z,-3.32
2022-12-18T03:27:56.320Z,-3.27
2022-12-18T03:30:31.822Z,-3.22
2022-12-18T03:33:09.663Z,-3.25
2022-12-18T03:35:44.061Z,-3.26
2022-12-18T03:38:16.373Z,-3.18
2022-12-18T03:40:58.583Z,-3.16
2022-12-18T03:43:41.740Z,-3.19
2022-12-18T03:46:22.742Z,-3.18
2022-12-18T03:49:00.209Z,-3.19
2022-12-18T03:51:39.736Z,-3.18
2022-12-18T03:54:13.671Z,-3.18
2022-12-18T03:56:49.531Z,-3.25
2022-12-18T03:59:24.402Z,-3.28
2022-12-18T04:01:59.152Z,-3.25
2022-12-18T04:04:33.154Z,-3.22
2022-12-18T04:07:05.654Z,-3.20
2022-12-18T04:09:38.805Z,-3.12
2022-12-18T04:12:11.895Z,-3.11
2022-12-18T04:14:43.574Z,-3.09
2022-12-18T04:17:15.997Z,-3.20
2022-12-18T04:19:47.963Z,-3.23
2022-12-18T04:22:19.625Z,-3.16
2022-12-18T04:24:52.190Z,-3.10
2022-12-18T04:27:23.945Z,-3.10
2022-12-18T04:29:55.515Z,-3.03
2022-12-18T04:32:27.245Z,-2.97
2022-12-18T04:34:58.899Z,-2.94
2022-12-18T04:37:30.664Z,-2.91
2022-12-18T04:40:02.347Z,-2.92
2022-12-18T04:42:34.039Z,-2.90
2022-12-18T04:45:06.346Z,-2.84
2022-12-18T04:47:38.002Z,-2.81
2022-12-18T04:50:14.348Z,-2.76
2022-12-18T04:52:46.126Z,-2.82
2022-12-18T04:55:17.894Z,-2.90
2022-12-18T04:57:49.552Z,-2.92
2022-12-18T05:00:21.685Z,-2.91
2022-12-18T05:02:53.533Z,-2.91
2022-12-18T05:05:25.742Z,-2.93
2022-12-18T05:07:57.401Z,-2.95
2022-12-18T05:10:32.245Z,-2.89
2022-12-18T05:13:07.983Z,-2.82
2022-12-18T05:15:39.846Z,-2.81
2022-12-18T05:18:11.571Z,-2.81
2022-12-18T05:20:43.208Z,-2.86
2022-12-18T05:23:14.889Z,-2.85
2022-12-18T05:25:52.496Z,-2.87
2022-12-18T05:28:25.460Z,-2.92
2022-12-18T05:30:58.583Z,-2.90
2022-12-18T05:33:33.020Z,-2.85
2022-12-18T05:36:06.507Z,-2.87
2022-12-18T05:38:40.260Z,-2.94
2022-12-18T05:41:12.525Z,-2.97
2022-12-18T05:43:44.634Z,-2.98
2022-12-18T05:46:18.595Z,-2.96
2022-12-18T05:48:51.362Z,-2.98
2022-12-18T05:51:24.279Z,-2.94
2022-12-18T05:53:56.026Z,-2.99
2022-12-18T05:56:27.630Z,-3.06
2022-12-18T05:58:59.795Z,-3.03
2022-12-18T06:01:31.701Z,-2.96
2022-12-18T06:04:04.294Z,-2.93
2022-12-18T06:06:37.798Z,-2.91
2022-12-18T06:09:10.984Z,-2.92
2022-12-18T06:11:42.772Z,-2.92
2022-12-18T06:14:14.732Z,-2.89
2022-12-18T06:16:46.319Z,-2.82
2022-12-18T06:19:19.524Z,-2.79
2022-12-18T06:21:51.799Z,-2.80
2022-12-18T06:24:23.443Z,-2.79
2022-12-18T06:26:55.104Z,-2.84
2022-12-18T06:29:26.933Z,-2.83
2022-12-18T06:31:58.791Z,-2.88
2022-12-18T06:34:30.495Z,-2.89
2022-12-18T06:37:02.204Z,-2.88
2022-12-18T06:39:33.905Z,-2.88
2022-12-18T06:42:06.700Z,-2.93
2022-12-18T06:44:38.385Z,-2.92
2022-12-18T06:47:10.116Z,-2.93
2022-12-18T06:49:41.831Z,-2.89
2022-12-18T06:52:13.624Z,-2.88
2022-12-18T06:54:45.330Z,-2.82
2022-12-18T06:57:16.955Z,-2.76
2022-12-18T06:59:48.700Z,-2.73
2022-12-18T07:02:20.387Z,-2.73
2022-12-18T07:04:52.263Z,-2.72
2022-12-18T07:07:23.880Z,-2.69
2022-12-18T07:09:55.634Z,-2.72
2022-12-18T07:12:28.453Z,-2.74
2022-12-18T07:15:00.142Z,-2.70
2022-12-18T07:17:31.753Z,-2.75
2022-12-18T07:20:03.400Z,-2.80
2022-12-18T07:22:35.070Z,-2.74
2022-12-18T07:25:08.263Z,-2.71
2022-12-18T07:27:39.896Z,-2.62
2022-12-18T07:30:24.787Z,-2.57
2022-12-18T07:32:56.463Z,-2.58
2022-12-18T07:35:28.068Z,-2.56
2022-12-18T07:37:59.802Z,-2.52
2022-12-18T07:40:31.530Z,-2.53
2022-12-18T07:43:03.153Z,-2.49
2022-12-18T07:45:34.942Z,-2.42
2022-12-18T07:48:06.996Z,-2.40
2022-12-18T07:50:38.711Z,-2.37
2022-12-18T07:53:10.347Z,-2.32
2022-12-18T07:56:17.806Z,-2.28
2022-12-18T07:58:34.323Z,-2.22
2022-12-18T08:01:13.866Z,-2.15
2022-12-18T08:03:45.592Z,-2.14
2022-12-18T08:06:17.551Z,-2.10
2022-12-18T08:08:49.208Z,-2.17
2022-12-18T08:11:21.632Z,-2.18
2022-12-18T08:13:53.903Z,-2.16
2022-12-18T08:16:26.316Z,-2.14
2022-12-18T08:18:58.408Z,-2.10
2022-12-18T08:21:32.358Z,-2.02
2022-12-18T08:24:04.887Z,-1.99
2022-12-18T08:26:36.551Z,-1.99
2022-12-18T08:29:09.388Z,-2.00
2022-12-18T08:31:41.103Z,-2.00
2022-12-18T08:34:12.846Z,-2.00
2022-12-18T08:36:44.521Z,-1.99
2022-12-18T08:39:16.304Z,-2.06
2022-12-18T08:42:10.315Z,-2.08
2022-12-18T08:44:42.643Z,-2.03
2022-12-18T08:47:14.315Z,-2.02
2022-12-18T08:49:45.958Z,-1.98
2022-12-18T08:52:17.586Z,-1.96
2022-12-18T08:54:49.398Z,-1.97
2022-12-18T08:57:21.036Z,-2.04
2022-12-18T08:59:52.716Z,-2.04
2022-12-18T09:02:24.567Z,-2.03
2022-12-18T09:04:57.752Z,-1.95
2022-12-18T09:07:29.695Z,-1.91
2022-12-18T09:10:01.278Z,-1.87
2022-12-18T09:12:33.062Z,-1.83
2022-12-18T09:15:05.201Z,-1.79
2022-12-18T09:17:36.784Z,-1.75
2022-12-18T09:20:15.879Z,-1.70
2022-12-18T09:22:48.201Z,-1.71
2022-12-18T09:25:20.051Z,-1.76
2022-12-18T09:27:51.936Z,-1.77
2022-12-18T09:30:23.702Z,-1.76
2022-12-18T09:32:55.400Z,-1.81
2022-12-18T09:35:28.737Z,-1.82
2022-12-18T09:38:00.510Z,-1.80
2022-12-18T09:40:37.313Z,-1.77
2022-12-18T09:43:15.823Z,-1.74
2022-12-18T09:45:57.016Z,-1.71
2022-12-18T09:48:32.987Z,-1.69
2022-12-18T09:51:11.505Z,-1.68
2022-12-18T09:53:47.758Z,-1.64
2022-12-18T09:56:24.075Z,-1.64
2022-12-18T09:59:00.597Z,-1.65
2022-12-18T10:01:43.128Z,-1.67
2022-12-18T10:04:15.774Z,-1.66
2022-12-18T10:06:55.232Z,-1.64
2022-12-18T10:09:34.770Z,-1.58
2022-12-18T10:12:14.923Z,-1.58
2022-12-18T10:14:52.571Z,-1.62
2022-12-18T10:17:34.237Z,-1.65
2022-12-18T10:20:15.439Z,-1.63
2022-12-18T10:22:51.359Z,-1.56
2022-12-18T10:25:28.430Z,-1.54
2022-12-18T10:28:09.289Z,-1.50
2022-12-18T10:30:42.543Z,-1.45
2022-12-18T10:33:16.649Z,-1.48
2022-12-18T10:35:49.602Z,-1.45
2022-12-18T10:38:32.772Z,-1.42
2022-12-18T10:41:06.630Z,-1.35
2022-12-18T10:43:40.362Z,-1.30
2022-12-18T10:46:22.089Z,-1.22
2022-12-18T10:48:57.191Z,-1.21
2022-12-18T10:51:31.925Z,-1.17
2022-12-18T10:54:06.764Z,-1.16
2022-12-18T10:56:40.050Z,-1.14
2022-12-18T10:59:15.769Z,-1.09
2022-12-18T11:01:53.592Z,-1.05
2022-12-18T11:04:28.276Z,-0.98
2022-12-18T11:07:02.768Z,-0.99
2022-12-18T11:09:36.360Z,-1.04
2022-12-18T11:12:19.985Z,-1.01
2022-12-18T11:14:53.965Z,-1.01
2022-12-18T11:17:31.425Z,-1.09
2022-12-18T11:20:05.969Z,-1.08
2022-12-18T11:22:39.576Z,-1.12
2022-12-18T11:25:33.039Z,-1.17
2022-12-18T11:28:07.564Z,-1.16
2022-12-18T11:30:39.998Z,-1.16
2022-12-18T11:33:17.645Z,-1.13
2022-12-18T11:35:53.325Z,-1.10
2022-12-18T11:38:28.291Z,-1.03
2022-12-18T11:41:06.254Z,-0.97
2022-12-18T11:43:43.373Z,-0.97
2022-12-18T11:46:20.240Z,-0.97
2022-12-18T11:48:59.059Z,-0.99
2022-12-18T11:51:35.580Z,-0.99
2022-12-18T11:54:16.838Z,-0.99
2022-12-18T11:56:50.099Z,-0.95
2022-12-18T11:59:33.481Z,-0.95
2022-12-18T12:02:19.879Z,-1.00
2022-12-18T12:05:14.735Z,-1.05
2022-12-18T12:07:54.592Z,-1.04
2022-12-18T12:10:41.346Z,-1.01
2022-12-18T12:13:25.732Z,-1.01
2022-12-18T12:16:12.381Z,-1.03
2022-12-18T12:18:56.644Z,-1.04
2022-12-18T12:21:36.952Z,-1.14
2022-12-18T12:24:24.819Z,-1.17
2022-12-18T12:27:05.530Z,-1.19
2022-12-18T12:29:48.899Z,-1.19
2022-12-18T12:32:32.800Z,-1.18
2022-12-18T12:35:17.804Z,-1.15
2022-12-18T12:37:56.651Z,-1.14
2022-12-18T12:43:34.283Z,-1.10
2022-12-18T12:46:10.804Z,-1.07
2022-12-18T12:48:48.697Z,-1.08
2022-12-18T12:51:24.849Z,-1.11
2022-12-18T12:53:59.416Z,-1.18
2022-12-18T12:56:39.195Z,-1.18
2022-12-18T12:59:18.452Z,-1.21
2022-12-18T13:02:01.175Z,-1.27
2022-12-18T13:04:41.009Z,-1.32
2022-12-18T13:07:18.237Z,-1.33
2022-12-18T13:13:23.699Z,-1.31
2022-12-18T13:16:09.339Z,-1.33
2022-12-18T13:18:50.112Z,-1.34
2022-12-18T13:21:28.764Z,-1.30
2022-12-18T13:24:16.656Z,-1.32
2022-12-18T13:26:48.442Z,-1.28
2022-12-18T13:29:46.225Z,-1.21
2022-12-18T13:32:26.736Z,-1.15
2022-12-18T13:35:36.056Z,-1.13
2022-12-18T13:38:24.949Z,-1.18
2022-12-18T13:40:59.744Z,-1.20
2022-12-18T13:43:46.425Z,-1.26
2022-12-18T13:46:28.934Z,-1.35
2022-12-18T13:49:04.484Z,-1.39
2022-12-18T13:51:37.516Z,-1.38
2022-12-18T13:54:21.205Z,-1.41
2022-12-18T13:56:54.364Z,-1.41
2022-12-18T13:59:27.616Z,-1.39
2022-12-18T14:02:04.204Z,-1.39
2022-12-18T14:04:37.611Z,-1.40
2022-12-18T14:07:14.855Z,-1.39
2022-12-18T14:09:52.269Z,-1.38
2022-12-18T14:12:46.941Z,-1.43
2022-12-18T14:15:29.503Z,-1.48
2022-12-18T14:18:03.928Z,-1.46
2022-12-18T14:20:36.623Z,-1.46
2022-12-18T14:23:26.766Z,-1.50
2022-12-18T14:26:05.154Z,-1.50
2022-12-18T14:28:47.058Z,-1.50
2022-12-18T14:31:23.646Z,-1.60
2022-12-18T14:33:56.284Z,-1.65
2022-12-18T14:36:30.087Z,-1.65
2022-12-18T14:39:02.273Z,-1.62
2022-12-18T14:41:34.268Z,-1.64
2022-12-18T14:44:13.626Z,-1.67
2022-12-18T14:46:46.926Z,-1.74
2022-12-18T14:49:28.646Z,-1.86
2022-12-18T14:52:02.833Z,-2.01
2022-12-18T14:54:37.148Z,-2.16
2022-12-18T14:57:27.525Z,-2.21
2022-12-18T15:00:36.690Z,-2.27
2022-12-18T15:03:11.766Z,-2.32
2022-12-18T15:05:43.599Z,-2.38
2022-12-18T15:14:32.999Z,-2.66
2022-12-18T15:17:08.071Z,-2.69
2022-12-18T15:19:43.604Z,-2.75
2022-12-18T15:22:26.545Z,-2.77
2022-12-18T15:25:00.088Z,-2.79
2022-12-18T15:27:34.471Z,-2.86
2022-12-18T15:30:28.464Z,-2.90
2022-12-18T15:33:25.905Z,-2.88
2022-12-18T15:36:02.138Z,-2.91
2022-12-18T15:38:34.310Z,-2.94
2022-12-18T15:41:10.239Z,-2.96
2022-12-18T15:43:46.424Z,-3.05
2022-12-18T15:46:20.982Z,-3.11
2022-12-18T15:49:01.221Z,-3.16
2022-12-18T15:51:37.483Z,-3.21
2022-12-18T15:54:14.028Z,-3.24
2022-12-18T15:57:03.343Z,-3.26
2022-12-18T15:59:35.045Z,-3.22
2022-12-18T16:02:18.400Z,-3.24
2022-12-18T16:04:50.381Z,-3.24
2022-12-18T16:07:25.697Z,-3.24
2022-12-18T16:09:59.127Z,-3.25
2022-12-18T16:12:34.142Z,-3.27
2022-12-18T16:15:09.040Z,-3.24
2022-12-18T16:17:40.910Z,-3.24
2022-12-18T16:20:17.107Z,-3.23
2022-12-18T16:22:49.635Z,-3.19
2022-12-18T16:25:25.316Z,-3.13
2022-12-18T16:27:58.260Z,-3.07
2022-12-18T16:30:38.191Z,-3.05
2022-12-18T16:33:10.365Z,-3.03
2022-12-18T16:35:42.202Z,-3.03
2022-12-18T16:38:14.608Z,-3.08
2022-12-18T16:41:00.106Z,-3.12
2022-12-18T16:43:31.811Z,-3.20
2022-12-18T16:46:03.859Z,-3.24
2022-12-18T16:48:35.531Z,-3.26
2022-12-18T16:51:07.809Z,-3.27
2022-12-18T16:53:39.799Z,-3.27
2022-12-18T16:56:11.807Z,-3.27
2022-12-18T16:58:43.464Z,-3.32
2022-12-18T17:01:16.121Z,-3.32
2022-12-18T17:03:52.558Z,-3.36
2022-12-18T17:06:24.917Z,-3.38
2022-12-18T17:09:03.357Z,-3.42
2022-12-18T17:11:36.957Z,-3.45
2022-12-18T17:14:15.484Z,-3.46
2022-12-18T17:16:49.177Z,-3.44
2022-12-18T17:19:26.828Z,-3.40
2022-12-18T17:21:58.555Z,-3.34
2022-12-18T17:24:34.544Z,-3.30
2022-12-18T17:27:08.633Z,-3.27
2022-12-18T17:29:46.780Z,-3.31
2022-12-18T17:32:19.550Z,-3.28
2022-12-18T17:34:51.144Z,-3.27
2022-12-18T17:37:22.818Z,-3.26
2022-12-18T17:39:55.611Z,-3.22
2022-12-18T17:42:27.436Z,-3.20
2022-12-18T17:44:59.204Z,-3.18
2022-12-18T17:47:31.102Z,-3.20
2022-12-18T17:50:02.799Z,-3.21
2022-12-18T17:52:34.358Z,-3.23
2022-12-18T17:55:06.726Z,-3.26
2022-12-18T17:57:38.694Z,-3.25
2022-12-18T18:00:39.897Z,-3.28
2022-12-18T18:03:11.656Z,-3.29
2022-12-18T18:05:43.948Z,-3.32
2022-12-18T18:08:15.626Z,-3.35
2022-12-18T18:10:49.121Z,-3.35
2022-12-18T18:14:06.072Z,-3.40
2022-12-18T18:16:55.573Z,-3.43
2022-12-18T18:19:29.146Z,-3.44
2022-12-18T18:22:18.777Z,-3.39
2022-12-18T18:24:50.514Z,-3.35
2022-12-18T18:27:22.186Z,-3.38
2022-12-18T18:29:53.819Z,-3.43
2022-12-18T18:32:25.441Z,-3.48
2022-12-18T18:34:57.150Z,-3.53
2022-12-18T18:37:28.872Z,-3.57
2022-12-18T18:40:00.881Z,-3.59
2022-12-18T18:42:32.872Z,-3.60
2022-12-18T18:45:04.574Z,-3.59
2022-12-18T18:47:36.293Z,-3.54
2022-12-18T18:50:14.476Z,-3.54
2022-12-18T18:53:03.712Z,-3.54
2022-12-18T18:55:37.668Z,-3.54
2022-12-18T18:58:09.397Z,-3.51
2022-12-18T19:00:41.516Z,-3.50
2022-12-18T19:03:13.393Z,-3.48
2022-12-18T19:05:47.604Z,-3.44
2022-12-18T19:08:19.411Z,-3.43
2022-12-18T19:10:57.689Z,-3.43
2022-12-18T19:13:32.977Z,-3.43
2022-12-18T19:16:09.090Z,-3.43
2022-12-18T19:18:41.214Z,-3.44
2022-12-18T19:21:13.952Z,-3.41
2022-12-18T19:23:47.380Z,-3.45
2022-12-18T19:26:28.557Z,-3.47
2022-12-18T19:29:05.179Z,-3.57
2022-12-18T19:31:37.844Z,-3.67
2022-12-18T19:34:10.210Z,-3.70
2022-12-18T19:36:42.717Z,-3.71
2022-12-18T19:39:17.347Z,-3.73
2022-12-18T19:41:49.540Z,-3.73
2022-12-18T19:44:21.261Z,-3.81
2022-12-18T19:46:53.806Z,-3.91
2022-12-18T19:49:25.458Z,-3.89
2022-12-18T19:51:57.100Z,-3.86
2022-12-18T19:54:28.882Z,-3.87
2022-12-18T19:57:00.454Z,-3.85
2022-12-18T19:59:32.110Z,-3.84
2022-12-18T20:02:03.912Z,-3.82
2022-12-18T20:04:35.704Z,-3.92
2022-12-18T20:07:07.336Z,-4.04
2022-12-18T20:09:39.204Z,-4.10
2022-12-18T20:12:11.532Z,-4.10
2022-12-18T20:14:43.308Z,-4.08
2022-12-18T20:17:15.559Z,-4.11
2022-12-18T20:19:47.240Z,-4.11
2022-12-18T20:22:19.254Z,-4.07
2022-12-18T20:24:50.899Z,-4.05
2022-12-18T20:27:22.816Z,-4.08
2022-12-18T20:29:55.835Z,-4.08
2022-12-18T20:32:35.378Z,-4.06
2022-12-18T20:35:09.633Z,-4.09
2022-12-18T20:37:46.089Z,-4.07
2022-12-18T20:40:28.421Z,-4.08
2022-12-18T20:43:00.172Z,-4.10
2022-12-18T20:45:32.042Z,-4.22
2022-12-18T20:48:03.682Z,-4.29
2022-12-18T20:50:35.601Z,-4.24
2022-12-18T20:53:07.332Z,-4.20
2022-12-18T20:55:44.769Z,-4.20
2022-12-18T20:58:16.452Z,-4.20
2022-12-18T21:00:48.303Z,-4.22
2022-12-18T21:03:20.008Z,-4.23
2022-12-18T21:05:51.730Z,-4.26
2022-12-18T21:08:23.391Z,-4.33
2022-12-18T21:10:55.496Z,-4.35
2022-12-18T21:13:27.291Z,-4.32
2022-12-18T21:16:01.220Z,-4.29
2022-12-18T21:18:32.842Z,-4.37
2022-12-18T21:21:04.765Z,-4.41
2022-12-18T21:23:36.558Z,-4.41
2022-12-18T21:26:20.714Z,-4.44
2022-12-18T21:28:56.105Z,-4.41
2022-12-18T21:31:30.165Z,-4.39
2022-12-18T21:34:02.651Z,-4.42
2022-12-18T21:36:35.039Z,-4.44
2022-12-18T21:39:07.316Z,-4.43
2022-12-18T21:41:56.656Z,-4.46
2022-12-18T21:44:28.898Z,-4.47
2022-12-18T21:47:10.797Z,-4.53
2022-12-18T21:49:53.338Z,-4.58
2022-12-18T21:52:31.239Z,-4.66
2022-12-18T21:55:09.470Z,-4.73
2022-12-18T21:57:41.921Z,-4.77
2022-12-18T22:00:19.650Z,-4.72
2022-12-18T22:03:17.546Z,-4.67
2022-12-18T22:05:43.579Z,-4.64
2022-12-18T22:08:15.378Z,-4.63
2022-12-18T22:10:47.048Z,-4.65
2022-12-18T22:13:18.875Z,-4.62
2022-12-18T22:15:50.554Z,-4.60
2022-12-18T22:18:22.912Z,-4.60
2022-12-18T22:21:04.792Z,-4.58
2022-12-18T22:23:36.588Z,-4.60
2022-12-18T22:26:08.365Z,-4.61
2022-12-18T22:29:08.891Z,-4.57
2022-12-18T22:31:40.739Z,-4.51
2022-12-18T22:34:12.746Z,-4.48
2022-12-18T22:36:47.807Z,-4.48
2022-12-18T22:39:21.829Z,-4.48
2022-12-18T22:41:54.326Z,-4.57
2022-12-18T22:44:26.267Z,-4.58
2022-12-18T22:47:06.364Z,-4.55
2022-12-18T22:49:39.696Z,-4.53
2022-12-18T22:52:12.584Z,-4.53
2022-12-18T22:54:46.449Z,-4.53
2022-12-18T22:57:18.131Z,-4.52
2022-12-18T22:59:50.221Z,-4.52
2022-12-18T23:02:22.166Z,-4.52
2022-12-18T23:04:54.121Z,-4.51
2022-12-18T23:07:25.711Z,-4.50
2022-12-18T23:10:00.791Z,-4.50
2022-12-18T23:12:32.876Z,-4.50
2022-12-18T23:15:10.025Z,-4.45
2022-12-18T23:17:41.646Z,-4.43
2022-12-18T23:20:26.206Z,-4.41
2022-12-18T23:22:57.879Z,-4.43
2022-12-18T23:25:29.504Z,-4.42
2022-12-18T23:28:01.182Z,-4.37
2022-12-18T23:30:39.651Z,-4.36
2022-12-18T23:33:11.239Z,-4.33
2022-12-18T23:35:43.086Z,-4.37
2022-12-18T23:38:14.695Z,-4.34
2022-12-18T23:40:46.316Z,-4.26
2022-12-18T23:43:19.968Z,-4.20
2022-12-18T23:45:55.643Z,-4.17
2022-12-18T23:48:27.936Z,-4.11
2022-12-18T23:50:59.705Z,-4.08
2022-12-18T23:53:31.306Z,-4.04
2022-12-18T23:56:04.086Z,-4.05
2022-12-18T23:58:36.667Z,-4.06
